createdAt,value
2023-07-05T00:01:32.131Z,99713.06
2023-07-05T00:04:00.061Z,99704.25
2023-07-05T00:06:27.891Z,99716.09
2023-07-05T00:08:55.454Z,99700.03
2023-07-05T00:11:23.119Z,99705.53
2023-07-05T00:13:50.816Z,99704.28
2023-07-05T00:16:20.293Z,99698.63
2023-07-05T00:18:48.026Z,99690.13
2023-07-05T00:21:16.019Z,99678.72
2023-07-05T00:23:46.488Z,99672.28
2023-07-05T00:26:15.181Z,99670.72
2023-07-05T00:28:42.836Z,99664.63
2023-07-05T00:31:10.421Z,99659.00
2023-07-05T00:33:39.357Z,99659.16
2023-07-05T00:36:06.974Z,99650.38
2023-07-05T00:38:34.783Z,99649.50
2023-07-05T00:41:02.499Z,99644.38
2023-07-05T00:43:30.374Z,99638.97
2023-07-05T00:46:01.535Z,99642.31
2023-07-05T00:48:36.433Z,99639.19
2023-07-05T00:51:10.070Z,99633.72
2023-07-05T00:53:39.081Z,99632.41
2023-07-05T00:56:12.002Z,99636.44
2023-07-05T00:58:41.452Z,99634.41
2023-07-05T01:01:09.118Z,99627.53
2023-07-05T01:03:36.900Z,99623.38
2023-07-05T01:06:07.411Z,99613.31
2023-07-05T01:08:35.200Z,99612.25
2023-07-05T01:11:10.568Z,99604.56
2023-07-05T01:13:42.769Z,99595.94
2023-07-05T01:16:22.932Z,99593.16
2023-07-05T01:19:00.149Z,99589.88
2023-07-05T01:21:33.445Z,99593.88
2023-07-05T01:24:37.995Z,99583.25
2023-07-05T01:27:34.524Z,99590.84
2023-07-05T01:30:21.336Z,99588.16
2023-07-05T01:32:55.612Z,99591.44
2023-07-05T01:35:26.984Z,99588.72
2023-07-05T01:37:55.040Z,99585.09
2023-07-05T01:41:04.496Z,99576.41
2023-07-05T01:43:34.075Z,99568.47
2023-07-05T01:46:22.588Z,99571.88
2023-07-05T01:49:22.063Z,99563.88
2023-07-05T01:51:55.045Z,99568.03
2023-07-05T01:54:28.612Z,99564.63
2023-07-05T01:57:00.569Z,99553.69
2023-07-05T01:59:32.414Z,99545.34
2023-07-05T02:02:01.181Z,99550.72
2023-07-05T02:04:30.805Z,99540.75
2023-07-05T02:06:58.719Z,99540.59
2023-07-05T02:09:27.121Z,99536.41
2023-07-05T02:11:55.415Z,99518.97
2023-07-05T02:14:23.681Z,99510.50
2023-07-05T02:16:51.920Z,99502.75
2023-07-05T02:19:20.193Z,99494.91
2023-07-05T02:21:49.690Z,99492.03
2023-07-05T02:24:17.276Z,99476.41
2023-07-05T02:26:44.812Z,99475.53
2023-07-05T02:29:12.391Z,99472.38
2023-07-05T02:31:40.019Z,99464.78
2023-07-05T02:34:07.675Z,99462.03
2023-07-05T02:36:36.508Z,99456.44
2023-07-05T02:39:05.422Z,99454.50
2023-07-05T02:41:33.250Z,99450.81
2023-07-05T02:44:00.855Z,99448.22
2023-07-05T02:46:30.596Z,99443.88
2023-07-05T02:48:58.797Z,99439.53
2023-07-05T02:51:28.169Z,99439.53
2023-07-05T02:53:55.897Z,99439.91
2023-07-05T02:56:25.150Z,99438.47
2023-07-05T02:58:52.733Z,99428.28
2023-07-05T03:01:21.218Z,99408.50
2023-07-05T03:03:48.889Z,99408.72
2023-07-05T03:06:16.490Z,99407.06
2023-07-05T03:08:44.151Z,99406.91
2023-07-05T03:11:12.266Z,99400.63
2023-07-05T03:13:41.203Z,99392.81
2023-07-05T03:16:08.988Z,99392.25
2023-07-05T03:18:36.625Z,99388.09
2023-07-05T03:21:04.326Z,99385.88
2023-07-05T03:23:31.900Z,99372.63
2023-07-05T03:26:00.724Z,99370.41
2023-07-05T03:28:31.134Z,99367.13
2023-07-05T03:31:02.173Z,99363.75
2023-07-05T03:33:30.795Z,99354.56
2023-07-05T03:35:59.223Z,99359.78
2023-07-05T03:38:28.359Z,99353.13
2023-07-05T03:41:00.523Z,99341.22
2023-07-05T03:43:28.733Z,99340.66
2023-07-05T03:45:56.462Z,99343.38
2023-07-05T03:48:25.453Z,99344.78
2023-07-05T03:50:56.633Z,99327.50
2023-07-05T03:53:24.340Z,99316.69
2023-07-05T03:55:52.088Z,99319.75
2023-07-05T03:58:19.860Z,99307.13
2023-07-05T04:00:47.844Z,99305.00
2023-07-05T04:03:15.795Z,99303.44
2023-07-05T04:05:45.265Z,99295.53
2023-07-05T04:08:13.052Z,99296.38
2023-07-05T04:10:48.383Z,99295.59
2023-07-05T04:13:15.991Z,99289.63
2023-07-05T04:15:43.628Z,99294.50
2023-07-05T04:18:11.201Z,99290.31
2023-07-05T04:20:39.363Z,99305.13
2023-07-05T04:23:08.235Z,99302.81
2023-07-05T04:25:35.800Z,99311.28
2023-07-05T04:28:03.340Z,99319.03
2023-07-05T04:30:30.907Z,99316.63
2023-07-05T04:32:58.886Z,99321.00
2023-07-05T04:35:26.486Z,99335.75
2023-07-05T04:37:54.097Z,99338.84
2023-07-05T04:40:24.067Z,99316.72
2023-07-05T04:42:51.650Z,99309.47
2023-07-05T04:45:19.228Z,99305.31
2023-07-05T04:47:46.824Z,99302.03
2023-07-05T04:50:14.414Z,99294.81
2023-07-05T04:52:41.974Z,99284.75
2023-07-05T04:55:11.276Z,99291.44
2023-07-05T04:57:43.407Z,99284.13
2023-07-05T05:00:12.825Z,99284.31
2023-07-05T05:02:40.494Z,99289.53
2023-07-05T05:05:09.296Z,99283.34
2023-07-05T05:07:37.054Z,99277.84
2023-07-05T05:10:05.409Z,99284.78
2023-07-05T05:12:32.992Z,99276.06
2023-07-05T05:15:01.881Z,99270.53
2023-07-05T05:17:29.502Z,99270.16
2023-07-05T05:19:57.114Z,99278.66
2023-07-05T05:22:24.728Z,99276.06
2023-07-05T05:24:52.305Z,99274.97
2023-07-05T05:27:20.023Z,99278.16
2023-07-05T05:29:47.656Z,99275.19
2023-07-05T05:32:16.540Z,99276.88
2023-07-05T05:34:44.130Z,99282.72
2023-07-05T05:37:11.702Z,99274.47
2023-07-05T05:39:39.434Z,99263.34
2023-07-05T05:42:07.036Z,99258.91
2023-07-05T05:44:34.592Z,99252.19
2023-07-05T05:47:02.180Z,99242.28
2023-07-05T05:49:31.068Z,99233.50
2023-07-05T05:51:58.851Z,99233.03
2023-07-05T05:54:26.408Z,99238.75
2023-07-05T05:56:54.047Z,99231.38
2023-07-05T05:59:21.619Z,99238.06
2023-07-05T06:01:49.222Z,99230.72
2023-07-05T06:04:16.892Z,99249.59
2023-07-05T06:06:45.842Z,99245.84
2023-07-05T06:09:13.961Z,99241.63
2023-07-05T06:11:41.510Z,99239.50
2023-07-05T06:14:10.063Z,99242.56
2023-07-05T06:16:37.964Z,99247.09
2023-07-05T06:19:05.838Z,99254.50
2023-07-05T06:21:33.402Z,99250.81
2023-07-05T06:24:02.720Z,99259.28
2023-07-05T06:26:30.331Z,99247.47
2023-07-05T06:28:57.895Z,99251.69
2023-07-05T06:31:25.520Z,99244.88
2023-07-05T06:33:53.162Z,99244.78
2023-07-05T06:36:20.682Z,99243.41
2023-07-05T06:38:48.236Z,99247.84
2023-07-05T06:41:17.096Z,99234.06
2023-07-05T06:43:44.963Z,99234.09
2023-07-05T06:46:12.662Z,99226.19
2023-07-05T06:48:40.251Z,99229.22
2023-07-05T06:51:07.834Z,99234.09
2023-07-05T06:53:48.197Z,99240.53
2023-07-05T06:56:18.650Z,99231.41
2023-07-05T06:58:46.236Z,99240.59
2023-07-05T07:01:13.916Z,99237.31
2023-07-05T07:03:41.570Z,99237.53
2023-07-05T07:06:09.226Z,99242.84
2023-07-05T07:08:39.615Z,99246.47
2023-07-05T07:11:08.319Z,99247.50
2023-07-05T07:13:38.818Z,99242.00
2023-07-05T07:16:08.876Z,99246.97
2023-07-05T07:18:37.757Z,99248.84
2023-07-05T07:21:07.268Z,99247.16
2023-07-05T07:23:34.956Z,99258.25
2023-07-05T07:26:03.668Z,99258.09
2023-07-05T07:28:31.222Z,99262.94
2023-07-05T07:31:00.175Z,99249.06
2023-07-05T07:33:28.123Z,99257.13
2023-07-05T07:35:55.731Z,99252.31
2023-07-05T07:38:23.394Z,99255.13
2023-07-05T07:40:51.002Z,99251.56
2023-07-05T07:43:18.666Z,99254.41
2023-07-05T07:45:46.269Z,99267.63
2023-07-05T07:48:15.324Z,99273.25
2023-07-05T07:50:50.165Z,99269.25
2023-07-05T07:53:18.027Z,99265.78
2023-07-05T07:55:45.582Z,99264.69
2023-07-05T07:58:13.371Z,99262.94
2023-07-05T08:00:40.981Z,99263.81
2023-07-05T08:03:12.751Z,99268.00
2023-07-05T08:05:42.033Z,99273.31
2023-07-05T08:08:09.796Z,99272.78
2023-07-05T08:10:37.913Z,99265.78
2023-07-05T08:13:05.504Z,99260.22
2023-07-05T08:15:33.550Z,99263.06
2023-07-05T08:18:01.152Z,99261.31
2023-07-05T08:20:28.737Z,99263.25
2023-07-05T08:22:57.667Z,99257.34
2023-07-05T08:25:25.456Z,99259.09
2023-07-05T08:27:53.014Z,99261.59
2023-07-05T08:30:20.920Z,99273.81
2023-07-05T08:32:48.484Z,99268.34
2023-07-05T08:35:16.168Z,99267.63
2023-07-05T08:37:50.539Z,99265.78
2023-07-05T08:40:19.849Z,99259.22
2023-07-05T08:42:53.857Z,99264.06
2023-07-05T08:45:24.498Z,99264.41
2023-07-05T08:47:54.260Z,99271.22
2023-07-05T08:50:31.909Z,99284.69
2023-07-05T08:53:06.518Z,99284.78
2023-07-05T08:55:46.655Z,99283.63
2023-07-05T08:58:16.438Z,99283.56
2023-07-05T09:00:48.356Z,99284.38
2023-07-05T09:03:16.628Z,99297.22
2023-07-05T09:05:49.099Z,99292.56
2023-07-05T09:08:22.781Z,99278.19
2023-07-05T09:10:55.152Z,99284.13
2023-07-05T09:13:25.313Z,99290.56
2023-07-05T09:15:58.926Z,99286.59
2023-07-05T09:18:33.592Z,99285.00
2023-07-05T09:21:10.244Z,99286.16
2023-07-05T09:23:40.269Z,99283.34
2023-07-05T09:26:25.228Z,99290.25
2023-07-05T09:29:07.267Z,99300.88
2023-07-05T09:31:36.543Z,99295.25
2023-07-05T09:34:18.832Z,99282.19
2023-07-05T09:36:46.554Z,99299.13
2023-07-05T09:39:24.188Z,99298.00
2023-07-05T09:41:54.379Z,99297.44
2023-07-05T09:44:22.632Z,99295.78
2023-07-05T09:46:50.783Z,99305.59
2023-07-05T09:49:19.421Z,99308.41
2023-07-05T09:51:47.385Z,99309.78
2023-07-05T09:54:20.603Z,99312.44
2023-07-05T09:57:00.729Z,99328.81
2023-07-05T09:59:28.356Z,99345.41
2023-07-05T10:01:58.995Z,99331.72
2023-07-05T10:04:28.450Z,99335.66
2023-07-05T10:06:56.807Z,99334.13
2023-07-05T10:09:26.302Z,99343.69
2023-07-05T10:11:58.944Z,99338.63
2023-07-05T10:14:29.819Z,99340.19
2023-07-05T10:16:59.580Z,99339.72
2023-07-05T10:19:33.240Z,99322.97
2023-07-05T10:22:08.414Z,99347.00
2023-07-05T10:24:42.943Z,99351.59
2023-07-05T10:27:20.858Z,99361.34
2023-07-05T10:29:50.958Z,99374.09
2023-07-05T10:32:20.378Z,99379.28
2023-07-05T10:34:51.790Z,99368.44
2023-07-05T10:37:30.902Z,99374.91
2023-07-05T10:39:58.790Z,99372.91
2023-07-05T10:42:27.104Z,99369.13
2023-07-05T10:44:56.190Z,99380.09
2023-07-05T10:47:23.813Z,99376.97
2023-07-05T10:49:53.357Z,99387.53
2023-07-05T10:52:22.099Z,99388.38
2023-07-05T10:54:52.524Z,99401.31
2023-07-05T10:57:25.407Z,99407.25
2023-07-05T10:59:54.580Z,99405.06
2023-07-05T11:02:35.488Z,99409.22
2023-07-05T11:05:03.722Z,99413.47
2023-07-05T11:07:33.631Z,99413.44
2023-07-05T11:10:01.223Z,99418.25
2023-07-05T11:12:30.415Z,99417.19
2023-07-05T11:14:59.814Z,99437.66
2023-07-05T11:17:32.469Z,99427.59
2023-07-05T11:20:00.134Z,99442.63
2023-07-05T11:22:47.216Z,99441.47
2023-07-05T11:25:17.952Z,99447.03
2023-07-05T11:27:52.261Z,99442.38
2023-07-05T11:30:39.547Z,99444.00
2023-07-05T11:33:18.157Z,99463.81
2023-07-05T11:35:47.877Z,99457.75
2023-07-05T11:39:07.042Z,99458.47
2023-07-05T11:41:38.300Z,99458.44
2023-07-05T11:44:07.087Z,99453.13
2023-07-05T11:46:39.660Z,99463.06
2023-07-05T11:49:29.956Z,99482.72
2023-07-05T11:52:00.526Z,99487.47
2023-07-05T11:54:34.498Z,99485.66
2023-07-05T11:57:03.938Z,99491.56
2023-07-05T11:59:35.348Z,99496.69
2023-07-05T12:02:08.617Z,99501.59
2023-07-05T12:04:40.221Z,99496.66
2023-07-05T12:07:08.080Z,99496.63
2023-07-05T12:09:37.552Z,99501.66
2023-07-05T12:12:06.945Z,99500.34
2023-07-05T12:14:34.613Z,99490.13
2023-07-05T12:17:02.414Z,99508.09
2023-07-05T12:19:31.954Z,99507.97
2023-07-05T12:22:03.591Z,99501.22
2023-07-05T12:24:38.097Z,99490.13
2023-07-05T12:27:06.929Z,99502.00
2023-07-05T12:29:34.465Z,99494.38
2023-07-05T12:32:08.765Z,99506.69
2023-07-05T12:34:36.382Z,99502.94
2023-07-05T12:37:05.316Z,99508.50
2023-07-05T12:39:33.073Z,99516.28
2023-07-05T12:42:03.880Z,99515.72
2023-07-05T12:44:32.163Z,99514.72
2023-07-05T12:47:12.887Z,99522.84
2023-07-05T12:49:40.807Z,99513.03
2023-07-05T12:52:20.373Z,99521.72
2023-07-05T12:54:48.154Z,99525.66
2023-07-05T12:57:21.994Z,99517.03
2023-07-05T13:00:00.283Z,99525.63
2023-07-05T13:02:33.118Z,99534.72
2023-07-05T13:05:01.642Z,99535.53
2023-07-05T13:07:33.573Z,99546.88
2023-07-05T13:10:02.975Z,99555.78
2023-07-05T13:12:46.012Z,99537.72
2023-07-05T13:15:13.691Z,99552.56
2023-07-05T13:17:41.755Z,99547.75
2023-07-05T13:20:28.915Z,99550.66
2023-07-05T13:22:59.186Z,99552.09
2023-07-05T13:25:28.902Z,99545.19
2023-07-05T13:27:58.003Z,99540.91
2023-07-05T13:30:25.795Z,99543.78
2023-07-05T13:32:54.832Z,99538.94
2023-07-05T13:35:23.101Z,99547.66
2023-07-05T13:37:51.788Z,99555.88
2023-07-05T13:40:22.122Z,99558.31
2023-07-05T13:42:50.411Z,99545.91
2023-07-05T13:45:20.413Z,99558.53
2023-07-05T13:47:49.021Z,99548.34
2023-07-05T13:50:16.846Z,99564.09
2023-07-05T13:52:46.129Z,99558.84
2023-07-05T13:55:18.174Z,99543.91
2023-07-05T13:57:57.817Z,99556.13
2023-07-05T14:00:28.486Z,99547.69
2023-07-05T14:02:56.429Z,99548.34
2023-07-05T14:05:28.101Z,99555.88
2023-07-05T14:07:56.917Z,99552.28
2023-07-05T14:10:26.417Z,99538.88
2023-07-05T14:12:54.120Z,99556.97
2023-07-05T14:15:29.381Z,99564.75
2023-07-05T14:17:57.004Z,99564.00
2023-07-05T14:20:25.306Z,99555.59
2023-07-05T14:22:52.852Z,99552.31
2023-07-05T14:25:22.819Z,99554.34
2023-07-05T14:27:50.833Z,99554.16
2023-07-05T14:30:20.207Z,99562.63
2023-07-05T14:32:49.636Z,99571.09
2023-07-05T14:35:19.654Z,99562.38
2023-07-05T14:37:48.701Z,99579.75
2023-07-05T14:40:17.432Z,99585.75
2023-07-05T14:42:45.174Z,99566.16
2023-07-05T14:45:18.948Z,99570.19
2023-07-05T14:47:53.928Z,99589.91
2023-07-05T14:50:21.735Z,99572.38
2023-07-05T14:52:49.635Z,99584.31
2023-07-05T14:55:19.225Z,99586.03
2023-07-05T14:57:46.886Z,99582.47
2023-07-05T15:00:15.407Z,99582.31
2023-07-05T15:02:45.064Z,99587.69
2023-07-05T15:05:13.957Z,99585.28
2023-07-05T15:07:41.533Z,99596.78
2023-07-05T15:10:10.680Z,99590.78
2023-07-05T15:12:42.068Z,99597.63
2023-07-05T15:15:17.939Z,99598.69
2023-07-05T15:17:45.618Z,99594.78
2023-07-05T15:20:16.320Z,99598.97
2023-07-05T15:22:45.524Z,99602.91
2023-07-05T15:25:13.688Z,99599.38
2023-07-05T15:27:41.373Z,99598.00
2023-07-05T15:30:10.532Z,99595.94
2023-07-05T15:32:39.673Z,99600.13
2023-07-05T15:35:09.258Z,99603.22
2023-07-05T15:37:38.313Z,99592.09
2023-07-05T15:40:07.883Z,99589.78
2023-07-05T15:42:35.631Z,99585.88
2023-07-05T15:45:03.205Z,99600.00
2023-07-05T15:47:30.925Z,99609.03
2023-07-05T15:49:58.571Z,99618.19
2023-07-05T15:52:26.317Z,99609.88
2023-07-05T15:54:55.556Z,99611.13
2023-07-05T15:57:23.391Z,99618.75
2023-07-05T15:59:58.785Z,99614.19
2023-07-05T16:02:28.539Z,99625.59
2023-07-05T16:04:56.446Z,99615.03
2023-07-05T16:07:25.367Z,99620.72
2023-07-05T16:09:55.186Z,99621.06
2023-07-05T16:12:24.569Z,99621.03
2023-07-05T16:14:52.141Z,99613.59
2023-07-05T16:17:19.898Z,99616.16
2023-07-05T16:19:47.526Z,99634.72
2023-07-05T16:22:15.161Z,99626.16
2023-07-05T16:24:42.774Z,99635.41
2023-07-05T16:27:10.581Z,99628.16
2023-07-05T16:29:39.540Z,99632.41
2023-07-05T16:32:07.865Z,99640.69
2023-07-05T16:34:35.664Z,99634.91
2023-07-05T16:37:03.294Z,99636.91
2023-07-05T16:39:30.838Z,99644.91
2023-07-05T16:41:58.388Z,99637.13
2023-07-05T16:44:27.484Z,99646.94
2023-07-05T16:46:57.070Z,99647.06
2023-07-05T16:49:24.844Z,99643.19
2023-07-05T16:51:53.164Z,99641.47
2023-07-05T16:54:20.775Z,99649.91
2023-07-05T16:56:48.353Z,99656.00
2023-07-05T16:59:16.044Z,99649.75
2023-07-05T17:01:44.230Z,99648.38
2023-07-05T17:04:13.393Z,99651.19
2023-07-05T17:06:40.995Z,99656.59
2023-07-05T17:09:08.543Z,99654.91
2023-07-05T17:11:36.092Z,99658.78
2023-07-05T17:14:03.764Z,99673.13
2023-07-05T17:16:31.492Z,99673.41
2023-07-05T17:18:59.093Z,99675.09
2023-07-05T17:21:28.652Z,99674.34
2023-07-05T17:23:56.263Z,99668.09
2023-07-05T17:26:23.810Z,99679.31
2023-07-05T17:28:51.374Z,99675.50
2023-07-05T17:31:21.716Z,99683.59
2023-07-05T17:33:50.063Z,99682.84
2023-07-05T17:36:20.721Z,99686.59
2023-07-05T17:38:50.458Z,99683.13
2023-07-05T17:41:18.780Z,99688.19
2023-07-05T17:43:47.165Z,99685.88
2023-07-05T17:46:20.888Z,99697.72
2023-07-05T17:48:48.940Z,99702.41
2023-07-05T17:51:16.732Z,99699.97
2023-07-05T17:53:44.312Z,99699.81
2023-07-05T17:56:15.168Z,99707.16
2023-07-05T17:58:42.887Z,99720.00
2023-07-05T18:01:13.318Z,99710.59
2023-07-05T18:03:42.264Z,99706.34
2023-07-05T18:06:12.162Z,99722.66
2023-07-05T18:08:40.867Z,99713.50
2023-07-05T18:11:09.538Z,99723.25
2023-07-05T18:13:39.682Z,99722.09
2023-07-05T18:16:10.138Z,99741.56
2023-07-05T18:18:38.141Z,99739.47
2023-07-05T18:21:08.446Z,99743.50
2023-07-05T18:23:38.181Z,99745.78
2023-07-05T18:26:08.040Z,99749.56
2023-07-05T18:28:36.321Z,99752.09
2023-07-05T18:31:06.249Z,99754.97
2023-07-05T18:33:36.206Z,99759.59
2023-07-05T18:36:05.374Z,99768.44
2023-07-05T18:38:33.615Z,99781.31
2023-07-05T18:41:05.632Z,99778.50
2023-07-05T18:43:33.202Z,99795.47
2023-07-05T18:46:01.342Z,99793.38
2023-07-05T18:48:31.296Z,99808.34
2023-07-05T18:51:00.069Z,99803.56
2023-07-05T18:53:30.059Z,99805.66
2023-07-05T18:55:58.938Z,99826.91
2023-07-05T18:58:27.008Z,99818.34
2023-07-05T19:00:58.561Z,99826.72
2023-07-05T19:03:27.276Z,99828.06
2023-07-05T19:06:01.864Z,99835.03
2023-07-05T19:08:29.869Z,99837.84
2023-07-05T19:10:59.787Z,99842.13
2023-07-05T19:13:27.677Z,99851.31
2023-07-05T19:15:55.577Z,99853.09
2023-07-05T19:18:23.679Z,99850.75
2023-07-05T19:20:51.385Z,99850.72
2023-07-05T19:23:20.297Z,99858.16
2023-07-05T19:25:48.032Z,99860.88
2023-07-05T19:28:16.149Z,99863.69
2023-07-05T19:30:43.954Z,99864.34
2023-07-05T19:33:11.601Z,99863.91
2023-07-05T19:35:42.462Z,99870.78
2023-07-05T19:38:10.587Z,99878.72
2023-07-05T19:40:39.956Z,99881.91
2023-07-05T19:43:07.647Z,99870.88
2023-07-05T19:45:35.709Z,99872.06
2023-07-05T19:48:03.676Z,99883.69
2023-07-05T19:50:34.405Z,99884.72
2023-07-05T19:53:02.580Z,99878.03
2023-07-05T19:55:33.398Z,99886.50
2023-07-05T19:58:04.623Z,99888.59
2023-07-05T20:00:33.976Z,99893.28
2023-07-05T20:03:02.688Z,99894.66
2023-07-05T20:05:33.566Z,99907.63
2023-07-05T20:08:01.399Z,99897.47
2023-07-05T20:10:29.342Z,99908.66
2023-07-05T20:13:00.010Z,99913.06
2023-07-05T20:15:33.146Z,99909.44
2023-07-05T20:18:01.165Z,99907.75
2023-07-05T20:20:29.292Z,99910.72
2023-07-05T20:22:56.864Z,99919.78
2023-07-05T20:25:25.197Z,99913.38
2023-07-05T20:27:55.940Z,99920.72
2023-07-05T20:30:25.635Z,99914.97
2023-07-05T20:32:54.607Z,99924.66
2023-07-05T20:35:22.216Z,99920.88
2023-07-05T20:37:59.793Z,99914.31
2023-07-05T20:40:31.287Z,99919.75
2023-07-05T20:43:00.645Z,99921.53
2023-07-05T20:45:28.791Z,99922.19
2023-07-05T20:47:57.747Z,99927.28
2023-07-05T20:50:25.513Z,99930.44
2023-07-05T20:52:53.296Z,99932.22
2023-07-05T20:55:21.062Z,99926.91
2023-07-05T20:57:48.827Z,99932.44
2023-07-05T21:00:18.124Z,99932.38
2023-07-05T21:02:45.867Z,99942.78
2023-07-05T21:05:15.622Z,99937.81
2023-07-05T21:07:43.758Z,99930.00
2023-07-05T21:10:11.869Z,99943.63
2023-07-05T21:12:39.428Z,99939.75
2023-07-05T21:15:09.028Z,99941.03
2023-07-05T21:17:38.235Z,99942.59
2023-07-05T21:20:10.512Z,99938.72
2023-07-05T21:22:39.468Z,99944.59
2023-07-05T21:25:08.558Z,99944.41
2023-07-05T21:27:36.539Z,99950.53
2023-07-05T21:30:04.729Z,99945.69
2023-07-05T21:32:32.358Z,99948.16
2023-07-05T21:34:59.981Z,99954.47
2023-07-05T21:37:27.607Z,99948.56
2023-07-05T21:39:56.862Z,99949.16
2023-07-05T21:42:24.540Z,99952.91
2023-07-05T21:44:52.131Z,99948.47
2023-07-05T21:47:19.741Z,99947.59
2023-07-05T21:49:47.710Z,99947.72
2023-07-05T21:52:17.003Z,99948.03
2023-07-05T21:54:44.967Z,99947.94
2023-07-05T21:57:15.185Z,99957.81
2023-07-05T21:59:42.925Z,99962.31
2023-07-05T22:02:10.533Z,99961.44
2023-07-05T22:04:38.337Z,99964.84
2023-07-05T22:07:10.960Z,99969.31
2023-07-05T22:09:39.540Z,99966.88
2023-07-05T22:12:07.986Z,99970.59
2023-07-05T22:14:38.117Z,99972.38
2023-07-05T22:17:08.591Z,99977.94
2023-07-05T22:19:36.198Z,99980.22
2023-07-05T22:22:05.705Z,99981.19
2023-07-05T22:24:33.618Z,99983.97
2023-07-05T22:27:01.704Z,99985.63
2023-07-05T22:29:29.289Z,99981.69
2023-07-05T22:31:58.151Z,99982.31
2023-07-05T22:34:26.166Z,99986.31
2023-07-05T22:36:53.845Z,99981.63
2023-07-05T22:39:21.459Z,99980.91
2023-07-05T22:41:48.999Z,99979.69
2023-07-05T22:44:16.603Z,99974.72
2023-07-05T22:46:44.212Z,99979.91
2023-07-05T22:49:13.159Z,99993.81
2023-07-05T22:51:40.886Z,99989.22
2023-07-05T22:54:08.924Z,99999.28
2023-07-05T22:56:36.529Z,99992.41
2023-07-05T22:59:04.442Z,99991.13
2023-07-05T23:01:32.403Z,100004.00
2023-07-05T23:04:00.271Z,100004.75
2023-07-05T23:06:30.214Z,99999.47
2023-07-05T23:08:57.817Z,100006.03
2023-07-05T23:11:25.523Z,100012.47
2023-07-05T23:13:53.512Z,100007.75
2023-07-05T23:16:21.520Z,100013.16
2023-07-05T23:18:49.722Z,100012.03
2023-07-05T23:21:19.892Z,100006.72
2023-07-05T23:23:51.158Z,100002.00
2023-07-05T23:26:19.826Z,100004.59
2023-07-05T23:28:48.614Z,99999.94
2023-07-05T23:31:22.415Z,100006.22
2023-07-05T23:33:50.411Z,100014.03
2023-07-05T23:36:19.170Z,100010.81
2023-07-05T23:38:46.820Z,100016.94
2023-07-05T23:41:16.367Z,100024.06
2023-07-05T23:43:44.007Z,100027.94
2023-07-05T23:46:11.848Z,100021.19
2023-07-05T23:48:39.968Z,100024.38
2023-07-05T23:51:08.532Z,100021.38
2023-07-05T23:53:36.547Z,100014.34
2023-07-05T23:56:04.360Z,100016.00
2023-07-05T23:58:33.659Z,100023.38
